createdAt,value
2023-05-04T00:00:03.277Z,6.20
2023-05-04T00:01:02.673Z,6.10
2023-05-04T00:02:03.144Z,6.10
2023-05-04T00:03:02.765Z,6.10
2023-05-04T00:04:03.657Z,6.10
2023-05-04T00:05:02.893Z,6.10
2023-05-04T00:06:03.129Z,6.10
2023-05-04T00:07:03.630Z,6.10
2023-05-04T00:08:03.536Z,6.10
2023-05-04T00:09:03.115Z,6.10
2023-05-04T00:10:03.645Z,6.10
2023-05-04T00:11:03.578Z,6.00
2023-05-04T00:12:03.012Z,6.00
2023-05-04T00:13:03.112Z,6.00
2023-05-04T00:14:02.885Z,6.00
2023-05-04T00:15:03.580Z,6.00
2023-05-04T00:16:03.561Z,6.00
2023-05-04T00:17:03.208Z,6.00
2023-05-04T00:18:03.483Z,6.00
2023-05-04T00:19:03.080Z,6.00
2023-05-04T00:20:03.727Z,5.90
2023-05-04T00:21:03.103Z,5.90
2023-05-04T00:22:02.842Z,5.90
2023-05-04T00:23:03.329Z,5.90
2023-05-04T00:24:02.799Z,5.90
2023-05-04T00:25:03.425Z,5.80
2023-05-04T00:26:03.172Z,5.80
2023-05-04T00:27:02.746Z,5.80
2023-05-04T00:28:03.254Z,5.80
2023-05-04T00:29:02.754Z,5.70
2023-05-04T00:30:03.600Z,5.70
2023-05-04T00:31:03.590Z,5.70
2023-05-04T00:32:02.654Z,5.70
2023-05-04T00:33:03.003Z,5.70
2023-05-04T00:34:03.534Z,5.70
2023-05-04T00:35:03.506Z,5.70
2023-05-04T00:36:02.949Z,5.70
2023-05-04T00:37:02.836Z,5.60
2023-05-04T00:38:03.610Z,5.60
2023-05-04T00:39:03.073Z,5.60
2023-05-04T00:40:03.460Z,5.60
2023-05-04T00:41:03.088Z,5.60
2023-05-04T00:42:03.075Z,5.60
2023-05-04T00:43:03.462Z,5.60
2023-05-04T00:44:03.160Z,5.60
2023-05-04T00:45:03.217Z,5.60
2023-05-04T00:46:02.801Z,5.50
2023-05-04T00:47:02.754Z,5.50
2023-05-04T00:48:02.970Z,5.50
2023-05-04T00:49:03.506Z,5.50
2023-05-04T00:50:03.269Z,5.50
2023-05-04T00:51:03.169Z,5.50
2023-05-04T00:52:02.834Z,5.50
2023-05-04T00:53:03.502Z,5.50
2023-05-04T00:54:03.371Z,5.50
2023-05-04T00:55:03.484Z,5.40
2023-05-04T00:56:03.066Z,5.50
2023-05-04T00:57:03.540Z,5.40
2023-05-04T00:58:03.635Z,5.40
2023-05-04T00:59:03.144Z,5.40
2023-05-04T01:00:02.829Z,5.30
2023-05-04T01:01:02.705Z,5.30
2023-05-04T01:02:02.762Z,5.30
2023-05-04T01:03:03.437Z,5.30
2023-05-04T01:04:03.044Z,5.30
2023-05-04T01:05:03.622Z,5.30
2023-05-04T01:06:03.199Z,5.30
2023-05-04T01:07:03.288Z,5.30
2023-05-04T01:08:02.744Z,5.30
2023-05-04T01:09:03.300Z,5.30
2023-05-04T01:10:03.407Z,5.30
2023-05-04T01:11:03.482Z,5.20
2023-05-04T01:12:02.985Z,5.20
2023-05-04T01:13:03.530Z,5.20
2023-05-04T01:14:02.776Z,5.20
2023-05-04T01:15:03.225Z,5.20
2023-05-04T01:16:02.722Z,5.20
2023-05-04T01:17:03.420Z,5.20
2023-05-04T01:18:03.618Z,5.10
2023-05-04T01:19:03.197Z,5.10
2023-05-04T01:20:02.906Z,5.10
2023-05-04T01:21:03.405Z,5.10
2023-05-04T01:22:02.944Z,5.10
2023-05-04T01:23:03.482Z,5.10
2023-05-04T01:24:03.139Z,5.10
2023-05-04T01:25:02.701Z,5.10
2023-05-04T01:26:02.814Z,5.10
2023-05-04T01:27:02.742Z,5.10
2023-05-04T01:28:02.813Z,5.10
2023-05-04T01:29:03.390Z,5.00
2023-05-04T01:30:03.361Z,5.00
2023-05-04T01:31:03.231Z,5.00
2023-05-04T01:32:02.866Z,5.00
2023-05-04T01:33:02.942Z,5.00
2023-05-04T01:34:03.478Z,5.00
2023-05-04T01:35:03.037Z,5.00
2023-05-04T01:36:03.087Z,5.00
2023-05-04T01:37:03.282Z,5.00
2023-05-04T01:38:02.871Z,5.00
2023-05-04T01:39:03.464Z,5.00
2023-05-04T01:40:03.058Z,5.00
2023-05-04T01:41:03.093Z,5.00
2023-05-04T01:42:02.669Z,5.00
2023-05-04T01:43:03.618Z,4.90
2023-05-04T01:44:03.062Z,5.00
2023-05-04T01:45:03.526Z,4.90
2023-05-04T01:46:02.699Z,4.90
2023-05-04T01:47:03.360Z,4.90
2023-05-04T01:48:02.962Z,4.90
2023-05-04T01:49:02.664Z,4.90
2023-05-04T01:50:03.406Z,4.90
2023-05-04T01:51:03.460Z,4.90
2023-05-04T01:52:02.943Z,4.90
2023-05-04T01:53:03.548Z,4.90
2023-05-04T01:54:03.550Z,4.90
2023-05-04T01:55:03.306Z,4.80
2023-05-04T01:56:02.852Z,4.80
2023-05-04T01:57:03.497Z,4.80
2023-05-04T01:58:02.702Z,4.80
2023-05-04T01:59:03.223Z,4.80
2023-05-04T02:00:03.581Z,4.80
2023-05-04T02:01:03.230Z,4.80
2023-05-04T02:02:03.310Z,4.80
2023-05-04T02:03:03.264Z,4.80
2023-05-04T02:04:03.519Z,4.80
2023-05-04T02:05:03.088Z,4.70
2023-05-04T02:06:02.775Z,4.70
2023-05-04T02:07:03.315Z,4.70
2023-05-04T02:08:02.942Z,4.70
2023-05-04T02:09:03.456Z,4.70
2023-05-04T02:10:03.172Z,4.70
2023-05-04T02:11:03.144Z,4.60
2023-05-04T02:12:03.123Z,4.60
2023-05-04T02:13:03.627Z,4.60
2023-05-04T02:14:02.658Z,4.60
2023-05-04T02:15:03.241Z,4.60
2023-05-04T02:16:03.307Z,4.60
2023-05-04T02:17:02.946Z,4.60
2023-05-04T02:18:03.090Z,4.60
2023-05-04T02:19:02.657Z,4.50
2023-05-04T02:20:03.563Z,4.50
2023-05-04T02:21:02.852Z,4.50
2023-05-04T02:22:03.385Z,4.50
2023-05-04T02:23:03.105Z,4.50
2023-05-04T02:24:03.610Z,4.50
2023-05-04T02:25:03.136Z,4.50
2023-05-04T02:26:03.143Z,4.40
2023-05-04T02:27:02.619Z,4.40
2023-05-04T02:28:03.545Z,4.40
2023-05-04T02:29:03.559Z,4.40
2023-05-04T02:30:03.391Z,4.40
2023-05-04T02:31:03.156Z,4.40
2023-05-04T02:32:03.302Z,4.40
2023-05-04T02:33:03.497Z,4.40
2023-05-04T02:34:03.098Z,4.40
2023-05-04T02:35:02.740Z,4.40
2023-05-04T02:36:03.245Z,4.40
2023-05-04T02:37:03.291Z,4.30
2023-05-04T02:38:03.297Z,4.30
2023-05-04T02:39:03.294Z,4.30
2023-05-04T02:40:03.020Z,4.30
2023-05-04T02:41:03.263Z,4.30
2023-05-04T02:42:03.278Z,4.30
2023-05-04T02:43:02.918Z,4.30
2023-05-04T02:44:03.570Z,4.30
2023-05-04T02:45:03.137Z,4.30
2023-05-04T02:46:03.120Z,4.30
2023-05-04T02:47:03.186Z,4.30
2023-05-04T02:48:02.921Z,4.30
2023-05-04T02:49:02.653Z,4.20
2023-05-04T02:50:03.522Z,4.20
2023-05-04T02:51:02.744Z,4.20
2023-05-04T02:52:03.165Z,4.20
2023-05-04T02:53:03.362Z,4.20
2023-05-04T02:54:03.407Z,4.20
2023-05-04T02:55:03.003Z,4.20
2023-05-04T02:56:03.618Z,4.20
2023-05-04T02:57:03.535Z,4.20
2023-05-04T02:58:03.117Z,4.20
2023-05-04T02:59:02.789Z,4.20
2023-05-04T03:00:03.473Z,4.20
2023-05-04T03:01:02.671Z,4.20
2023-05-04T03:02:02.814Z,4.20
2023-05-04T03:03:03.527Z,4.20
2023-05-04T03:04:03.199Z,4.20
2023-05-04T03:05:02.989Z,4.20
2023-05-04T03:06:02.998Z,4.20
2023-05-04T03:07:03.018Z,4.20
2023-05-04T03:08:03.068Z,4.20
2023-05-04T03:09:02.744Z,4.20
2023-05-04T03:10:02.692Z,4.10
2023-05-04T03:11:03.330Z,4.10
2023-05-04T03:12:02.784Z,4.10
2023-05-04T03:13:03.440Z,4.10
2023-05-04T03:14:03.298Z,4.10
2023-05-04T03:15:03.144Z,4.10
2023-05-04T03:16:02.902Z,4.10
2023-05-04T03:17:03.107Z,4.10
2023-05-04T03:18:02.786Z,4.00
2023-05-04T03:19:03.242Z,4.00
2023-05-04T03:20:03.597Z,4.00
2023-05-04T03:21:03.426Z,4.00
2023-05-04T03:22:03.468Z,4.00
2023-05-04T03:23:02.758Z,4.00
2023-05-04T03:24:02.746Z,4.00
2023-05-04T03:25:02.809Z,4.00
2023-05-04T03:26:02.708Z,4.00
2023-05-04T03:27:03.577Z,4.00
2023-05-04T03:28:02.644Z,4.00
2023-05-04T03:29:03.385Z,4.00
2023-05-04T03:30:03.139Z,4.00
2023-05-04T03:31:02.629Z,4.00
2023-05-04T03:32:03.200Z,4.00
2023-05-04T03:33:02.848Z,4.00
2023-05-04T03:34:02.900Z,3.90
2023-05-04T03:35:03.995Z,3.90
2023-05-04T03:36:03.409Z,3.90
2023-05-04T03:37:03.250Z,3.90
2023-05-04T03:38:03.156Z,3.90
2023-05-04T03:39:02.871Z,3.90
2023-05-04T03:40:03.553Z,3.90
2023-05-04T03:41:02.856Z,3.90
2023-05-04T03:42:02.765Z,3.90
2023-05-04T03:43:03.445Z,3.90
2023-05-04T03:44:03.535Z,3.80
2023-05-04T03:45:04.386Z,3.80
2023-05-04T03:46:03.626Z,3.80
2023-05-04T03:47:02.803Z,3.80
2023-05-04T03:48:03.500Z,3.80
2023-05-04T03:49:03.541Z,3.80
2023-05-04T03:50:03.296Z,3.80
2023-05-04T03:51:03.326Z,3.80
2023-05-04T03:52:03.501Z,3.80
2023-05-04T03:53:03.559Z,3.80
2023-05-04T03:54:02.961Z,3.80
2023-05-04T03:55:03.015Z,3.80
2023-05-04T03:56:02.712Z,3.80
2023-05-04T03:57:02.762Z,3.80
2023-05-04T03:58:02.672Z,3.80
2023-05-04T03:59:03.221Z,3.90
2023-05-04T04:00:03.081Z,3.90
2023-05-04T04:01:03.273Z,3.90
2023-05-04T04:02:02.896Z,3.90
2023-05-04T04:03:02.800Z,3.90
2023-05-04T04:04:03.941Z,3.90
2023-05-04T04:05:03.363Z,3.90
2023-05-04T04:06:02.883Z,3.90
2023-05-04T04:07:03.548Z,4.00
2023-05-04T04:08:03.114Z,4.00
2023-05-04T04:09:02.694Z,4.00
2023-05-04T04:10:03.672Z,4.00
2023-05-04T04:11:03.225Z,4.00
2023-05-04T04:12:02.800Z,4.00
2023-05-04T04:13:03.336Z,4.00
2023-05-04T04:14:03.295Z,4.10
2023-05-04T04:15:02.800Z,4.10
2023-05-04T04:16:02.939Z,4.10
2023-05-04T04:17:03.604Z,4.10
2023-05-04T04:18:03.416Z,4.10
2023-05-04T04:19:03.166Z,4.10
2023-05-04T04:20:02.797Z,4.10
2023-05-04T04:21:02.910Z,4.20
2023-05-04T04:22:03.477Z,4.20
2023-05-04T04:23:03.029Z,4.20
2023-05-04T04:24:02.703Z,4.20
2023-05-04T04:25:03.634Z,4.30
2023-05-04T04:26:02.794Z,4.30
2023-05-04T04:27:03.555Z,4.40
2023-05-04T04:28:03.251Z,4.40
2023-05-04T04:29:03.233Z,4.50
2023-05-04T04:30:02.921Z,4.60
2023-05-04T04:31:03.117Z,4.80
2023-05-04T04:32:02.952Z,4.90
2023-05-04T04:33:02.852Z,5.00
2023-05-04T04:34:03.067Z,5.20
2023-05-04T04:35:03.096Z,5.30
2023-05-04T04:36:02.701Z,5.50
2023-05-04T04:37:03.237Z,5.70
2023-05-04T04:38:03.863Z,5.90
2023-05-04T04:39:02.982Z,6.10
2023-05-04T04:40:03.232Z,6.20
2023-05-04T04:41:03.498Z,6.40
2023-05-04T04:42:03.145Z,6.50
2023-05-04T04:43:03.159Z,6.60
2023-05-04T04:44:02.673Z,6.70
2023-05-04T04:45:03.267Z,6.80
2023-05-04T04:46:02.809Z,6.90
2023-05-04T04:47:03.620Z,7.10
2023-05-04T04:48:03.146Z,7.20
2023-05-04T04:49:03.249Z,7.30
2023-05-04T04:50:03.832Z,7.50
2023-05-04T04:51:03.569Z,7.60
2023-05-04T04:52:03.232Z,7.80
2023-05-04T04:53:03.363Z,8.00
2023-05-04T04:54:03.295Z,8.10
2023-05-04T04:55:03.026Z,8.20
2023-05-04T04:56:03.482Z,8.30
2023-05-04T04:57:03.689Z,8.40
2023-05-04T04:58:03.216Z,8.50
2023-05-04T04:59:02.854Z,8.60
2023-05-04T05:00:03.426Z,8.70
2023-05-04T05:01:02.949Z,8.80
2023-05-04T05:02:03.160Z,8.90
2023-05-04T05:03:02.768Z,9.00
2023-05-04T05:04:03.415Z,9.10
2023-05-04T05:05:03.469Z,9.10
2023-05-04T05:06:03.037Z,9.20
2023-05-04T05:07:03.586Z,9.20
2023-05-04T05:08:03.098Z,9.30
2023-05-04T05:09:02.629Z,9.40
2023-05-04T05:10:03.579Z,9.50
2023-05-04T05:11:02.816Z,9.60
2023-05-04T05:12:03.336Z,9.80
2023-05-04T05:13:03.460Z,9.90
2023-05-04T05:14:02.798Z,10.10
2023-05-04T05:15:02.683Z,10.20
2023-05-04T05:16:03.236Z,10.40
2023-05-04T05:17:03.434Z,10.60
2023-05-04T05:18:02.762Z,10.80
2023-05-04T05:19:03.256Z,10.90
2023-05-04T05:20:03.325Z,11.10
2023-05-04T05:21:02.702Z,11.20
2023-05-04T05:22:02.710Z,11.30
2023-05-04T05:23:03.377Z,11.50
2023-05-04T05:24:03.314Z,11.60
2023-05-04T05:25:03.238Z,11.70
2023-05-04T05:26:03.621Z,11.80
2023-05-04T05:27:03.486Z,11.90
2023-05-04T05:28:02.998Z,12.10
2023-05-04T05:29:03.573Z,12.20
2023-05-04T05:30:03.685Z,12.30
2023-05-04T05:31:02.914Z,12.40
2023-05-04T05:32:03.472Z,12.50
2023-05-04T05:33:03.096Z,12.60
2023-05-04T05:34:02.653Z,12.70
2023-05-04T05:35:03.234Z,12.80
2023-05-04T05:36:03.242Z,12.90
2023-05-04T05:37:03.079Z,12.90
2023-05-04T05:38:03.004Z,13.00
2023-05-04T05:39:03.120Z,13.00
2023-05-04T05:40:03.240Z,13.00
2023-05-04T05:41:02.785Z,13.10
2023-05-04T05:42:02.956Z,13.10
2023-05-04T05:43:03.156Z,13.20
2023-05-04T05:44:02.828Z,13.20
2023-05-04T05:45:03.326Z,13.20
2023-05-04T05:46:03.250Z,13.20
2023-05-04T05:47:02.907Z,13.20
2023-05-04T05:48:03.617Z,13.20
2023-05-04T05:49:03.563Z,13.20
2023-05-04T05:50:03.237Z,13.20
2023-05-04T05:51:03.510Z,13.20
2023-05-04T05:52:03.228Z,13.20
2023-05-04T05:53:02.640Z,13.20
2023-05-04T05:54:02.772Z,13.20
2023-05-04T05:55:03.351Z,13.20
2023-05-04T05:56:02.890Z,13.30
2023-05-04T05:57:02.985Z,13.30
2023-05-04T05:58:03.017Z,13.40
2023-05-04T05:59:03.310Z,13.40
2023-05-04T06:00:03.016Z,13.40
2023-05-04T06:01:02.978Z,13.50
2023-05-04T06:02:03.178Z,13.50
2023-05-04T06:03:02.882Z,13.60
2023-05-04T06:04:03.502Z,13.70
2023-05-04T06:05:02.959Z,13.70
2023-05-04T06:06:03.437Z,13.80
2023-05-04T06:07:03.407Z,13.90
2023-05-04T06:08:03.497Z,13.90
2023-05-04T06:09:03.154Z,14.00
2023-05-04T06:10:03.101Z,14.00
2023-05-04T06:11:03.000Z,14.10
2023-05-04T06:12:03.569Z,14.20
2023-05-04T06:13:03.280Z,14.20
2023-05-04T06:14:03.244Z,14.30
2023-05-04T06:15:03.068Z,14.40
2023-05-04T06:16:02.947Z,14.40
2023-05-04T06:17:02.928Z,14.50
2023-05-04T06:18:03.271Z,14.60
2023-05-04T06:19:03.410Z,14.60
2023-05-04T06:20:03.072Z,14.70
2023-05-04T06:21:03.544Z,14.70
2023-05-04T06:22:03.557Z,14.80
2023-05-04T06:23:03.532Z,14.80
2023-05-04T06:24:03.644Z,14.90
2023-05-04T06:25:06.029Z,14.90
2023-05-04T06:26:03.214Z,15.00
2023-05-04T06:27:02.914Z,15.00
2023-05-04T06:28:03.459Z,15.10
2023-05-04T06:29:03.092Z,15.20
2023-05-04T06:30:02.784Z,15.20
2023-05-04T06:31:03.335Z,15.30
2023-05-04T06:32:03.419Z,15.30
2023-05-04T06:33:03.598Z,15.40
2023-05-04T06:34:02.616Z,15.40
2023-05-04T06:35:03.353Z,15.40
2023-05-04T06:36:03.312Z,15.40
2023-05-04T06:37:03.490Z,15.50
2023-05-04T06:38:03.085Z,15.50
2023-05-04T06:39:02.673Z,15.50
2023-05-04T06:40:02.767Z,15.60
2023-05-04T06:41:03.443Z,15.60
2023-05-04T06:42:03.041Z,15.50
2023-05-04T06:43:03.537Z,15.50
2023-05-04T06:44:03.214Z,15.50
2023-05-04T06:45:02.687Z,15.50
2023-05-04T06:46:03.580Z,15.50
2023-05-04T06:47:03.245Z,15.50
2023-05-04T06:48:03.304Z,15.50
2023-05-04T06:49:02.961Z,15.60
2023-05-04T06:50:03.736Z,15.60
2023-05-04T06:51:03.209Z,15.60
2023-05-04T06:52:03.376Z,15.70
2023-05-04T06:53:02.981Z,15.70
2023-05-04T06:54:02.926Z,15.70
2023-05-04T06:55:03.544Z,15.70
2023-05-04T06:56:03.587Z,15.80
2023-05-04T06:57:03.631Z,15.80
2023-05-04T06:58:03.233Z,15.90
2023-05-04T06:59:03.225Z,15.90
2023-05-04T07:00:02.885Z,15.90
2023-05-04T07:01:03.586Z,16.00
2023-05-04T07:02:03.006Z,16.00
2023-05-04T07:03:03.705Z,16.00
2023-05-04T07:04:03.251Z,16.00
2023-05-04T07:05:03.008Z,16.10
2023-05-04T07:06:03.564Z,16.10
2023-05-04T07:07:02.740Z,16.20
2023-05-04T07:08:03.329Z,16.20
2023-05-04T07:09:02.950Z,16.20
2023-05-04T07:10:03.191Z,16.20
2023-05-04T07:11:03.006Z,16.30
2023-05-04T07:12:02.658Z,16.30
2023-05-04T07:13:03.376Z,16.30
2023-05-04T07:14:03.033Z,16.30
2023-05-04T07:15:03.526Z,16.30
2023-05-04T07:16:03.249Z,16.40
2023-05-04T07:17:03.315Z,16.40
2023-05-04T07:18:02.866Z,16.40
2023-05-04T07:19:02.704Z,16.50
2023-05-04T07:20:03.654Z,16.50
2023-05-04T07:21:16.589Z,16.50
2023-05-04T07:22:03.522Z,16.60
2023-05-04T07:23:03.067Z,16.60
2023-05-04T07:24:02.753Z,16.70
2023-05-04T07:25:02.692Z,16.70
2023-05-04T07:26:02.681Z,16.70
2023-05-04T07:27:02.846Z,16.80
2023-05-04T07:28:02.761Z,16.90
2023-05-04T07:29:03.535Z,16.90
2023-05-04T07:30:03.155Z,16.90
2023-05-04T07:31:03.149Z,17.00
2023-05-04T07:32:03.007Z,17.00
2023-05-04T07:33:03.199Z,17.10
2023-05-04T07:34:02.855Z,17.20
2023-05-04T07:35:02.928Z,17.20
2023-05-04T07:36:02.885Z,17.30
2023-05-04T07:37:03.655Z,17.30
2023-05-04T07:38:03.320Z,17.30
2023-05-04T07:39:03.330Z,17.40
2023-05-04T07:40:03.061Z,17.40
2023-05-04T07:41:03.153Z,17.40
2023-05-04T07:42:02.742Z,17.40
2023-05-04T07:43:02.733Z,17.50
2023-05-04T07:44:03.200Z,17.50
2023-05-04T07:45:02.850Z,17.60
2023-05-04T07:46:03.424Z,17.60
2023-05-04T07:47:03.343Z,17.60
2023-05-04T07:48:03.399Z,17.70
2023-05-04T07:49:03.637Z,17.70
2023-05-04T07:50:03.750Z,17.70
2023-05-04T07:51:02.924Z,17.70
2023-05-04T07:52:02.894Z,17.80
2023-05-04T07:53:02.938Z,17.80
2023-05-04T07:54:03.523Z,17.80
2023-05-04T07:55:03.552Z,17.90
2023-05-04T07:56:03.228Z,17.90
2023-05-04T07:57:02.851Z,17.90
2023-05-04T07:58:02.942Z,18.00
2023-05-04T07:59:03.117Z,18.00
2023-05-04T08:00:03.040Z,18.10
2023-05-04T08:01:02.927Z,18.10
2023-05-04T08:02:02.874Z,18.20
2023-05-04T08:03:03.688Z,18.20
2023-05-04T08:04:02.707Z,18.20
2023-05-04T08:05:03.207Z,18.20
2023-05-04T08:06:03.150Z,18.20
2023-05-04T08:07:02.796Z,18.30
2023-05-04T08:08:02.822Z,18.30
2023-05-04T08:09:02.920Z,18.30
2023-05-04T08:10:02.805Z,18.30
2023-05-04T08:11:16.264Z,18.30
2023-05-04T08:12:02.894Z,18.40
2023-05-04T08:13:02.982Z,18.40
2023-05-04T08:14:03.214Z,18.40
2023-05-04T08:15:02.947Z,18.40
2023-05-04T08:16:02.818Z,18.40
2023-05-04T08:17:02.928Z,18.40
2023-05-04T08:18:03.604Z,18.50
2023-05-04T08:19:03.402Z,18.50
2023-05-04T08:20:03.279Z,18.50
2023-05-04T08:21:03.393Z,18.50
2023-05-04T08:22:02.938Z,18.50
2023-05-04T08:23:03.515Z,18.60
2023-05-04T08:24:03.255Z,18.60
2023-05-04T08:25:03.030Z,18.70
2023-05-04T08:26:03.194Z,18.70
2023-05-04T08:27:07.582Z,18.80
2023-05-04T08:28:02.873Z,18.80
2023-05-04T08:29:02.910Z,18.80
2023-05-04T08:30:02.664Z,18.90
2023-05-04T08:31:02.746Z,18.90
2023-05-04T08:32:02.786Z,18.90
2023-05-04T08:33:03.528Z,18.90
2023-05-04T08:34:03.407Z,18.90
2023-05-04T08:35:03.301Z,18.80
2023-05-04T08:36:03.440Z,18.90
2023-05-04T08:37:03.404Z,18.90
2023-05-04T08:38:03.606Z,18.90
2023-05-04T08:39:03.295Z,18.90
2023-05-04T08:40:03.008Z,18.90
2023-05-04T08:41:02.996Z,18.90
2023-05-04T08:42:03.627Z,18.90
2023-05-04T08:43:03.216Z,18.90
2023-05-04T08:44:02.875Z,18.90
2023-05-04T08:45:02.923Z,18.80
2023-05-04T08:46:02.853Z,18.90
2023-05-04T08:47:03.529Z,18.90
2023-05-04T08:48:03.301Z,18.90
2023-05-04T08:49:02.993Z,18.80
2023-05-04T08:50:02.816Z,18.80
2023-05-04T08:51:02.865Z,18.80
2023-05-04T08:52:02.792Z,18.80
2023-05-04T08:53:03.761Z,18.80
2023-05-04T08:54:03.298Z,18.80
2023-05-04T08:55:03.008Z,18.80
2023-05-04T08:56:03.178Z,18.80
2023-05-04T08:57:03.213Z,18.80
2023-05-04T08:58:02.786Z,18.80
2023-05-04T08:59:02.761Z,18.80
2023-05-04T09:00:03.540Z,18.80
2023-05-04T09:01:02.734Z,18.80
2023-05-04T09:02:03.060Z,18.80
2023-05-04T09:03:03.271Z,18.80
2023-05-04T09:04:02.992Z,18.80
2023-05-04T09:05:03.345Z,18.90
2023-05-04T09:06:03.202Z,18.90
2023-05-04T09:07:02.909Z,18.90
2023-05-04T09:08:02.825Z,18.90
2023-05-04T09:09:03.551Z,19.00
2023-05-04T09:10:03.428Z,19.00
2023-05-04T09:11:03.073Z,19.00
2023-05-04T09:12:02.734Z,19.10
2023-05-04T09:13:03.390Z,19.10
2023-05-04T09:14:03.043Z,19.20
2023-05-04T09:15:03.206Z,19.20
2023-05-04T09:16:02.980Z,19.20
2023-05-04T09:17:03.057Z,19.20
2023-05-04T09:18:02.919Z,19.20
2023-05-04T09:19:03.514Z,19.20
2023-05-04T09:20:03.331Z,19.20
2023-05-04T09:21:02.991Z,19.10
2023-05-04T09:22:03.546Z,19.20
2023-05-04T09:23:03.292Z,19.20
2023-05-04T09:24:03.053Z,19.20
2023-05-04T09:25:03.624Z,19.20
2023-05-04T09:26:03.255Z,19.20
2023-05-04T09:27:03.061Z,19.20
2023-05-04T09:28:03.013Z,19.20
2023-05-04T09:29:03.608Z,19.10
2023-05-04T09:30:03.233Z,19.10
2023-05-04T09:31:02.803Z,19.10
2023-05-04T09:32:03.376Z,19.10
2023-05-04T09:33:03.061Z,19.10
2023-05-04T09:34:02.704Z,19.10
2023-05-04T09:35:03.462Z,19.10
2023-05-04T09:36:02.686Z,19.20
2023-05-04T09:37:03.180Z,19.20
2023-05-04T09:38:02.812Z,19.20
2023-05-04T09:39:03.452Z,19.20
2023-05-04T09:40:03.229Z,19.20
2023-05-04T09:41:02.827Z,19.30
2023-05-04T09:42:03.415Z,19.30
2023-05-04T09:43:02.899Z,19.30
2023-05-04T09:44:02.735Z,19.20
2023-05-04T09:45:03.648Z,19.20
2023-05-04T09:46:03.416Z,19.20
2023-05-04T09:47:02.937Z,19.20
2023-05-04T09:48:03.444Z,19.20
2023-05-04T09:49:03.573Z,19.20
2023-05-04T09:50:03.222Z,19.30
2023-05-04T09:51:03.125Z,19.30
2023-05-04T09:52:02.705Z,19.30
2023-05-04T09:53:03.214Z,19.40
2023-05-04T09:54:02.911Z,19.40
2023-05-04T09:55:03.627Z,19.40
2023-05-04T09:56:03.962Z,19.40
2023-05-04T09:57:02.708Z,19.40
2023-05-04T09:58:03.306Z,19.40
2023-05-04T09:59:03.048Z,19.40
2023-05-04T10:00:03.648Z,19.40
2023-05-04T10:01:02.700Z,19.40
2023-05-04T10:02:14.369Z,19.40
2023-05-04T10:03:03.205Z,19.40
2023-05-04T10:04:03.197Z,19.40
2023-05-04T10:05:03.392Z,19.30
2023-05-04T10:06:03.205Z,19.30
2023-05-04T10:07:02.919Z,19.30
2023-05-04T10:08:03.563Z,19.30
2023-05-04T10:09:03.324Z,19.30
2023-05-04T10:10:02.968Z,19.40
2023-05-04T10:11:03.490Z,19.30
2023-05-04T10:12:03.232Z,19.30
2023-05-04T10:13:03.375Z,19.30
2023-05-04T10:14:02.988Z,19.30
2023-05-04T10:15:03.743Z,19.30
2023-05-04T10:16:03.590Z,19.40
2023-05-04T10:17:02.783Z,19.40
2023-05-04T10:18:02.755Z,19.40
2023-05-04T10:19:03.554Z,19.40
2023-05-04T10:20:03.543Z,19.40
2023-05-04T10:21:03.291Z,19.50
2023-05-04T10:22:02.872Z,19.50
2023-05-04T10:23:03.001Z,19.50
2023-05-04T10:24:03.694Z,19.50
2023-05-04T10:25:03.229Z,19.50
2023-05-04T10:26:02.907Z,19.50
2023-05-04T10:27:03.428Z,19.60
2023-05-04T10:28:03.455Z,19.60
2023-05-04T10:29:02.895Z,19.60
2023-05-04T10:30:03.470Z,19.60
2023-05-04T10:31:03.095Z,19.60
2023-05-04T10:32:02.775Z,19.60
2023-05-04T10:33:03.654Z,19.60
2023-05-04T10:34:02.966Z,19.60
2023-05-04T10:35:03.697Z,19.60
2023-05-04T10:36:02.822Z,19.60
2023-05-04T10:37:03.400Z,19.60
2023-05-04T10:38:03.079Z,19.60
2023-05-04T10:39:02.803Z,19.60
2023-05-04T10:40:03.393Z,19.60
2023-05-04T10:41:03.619Z,19.60
2023-05-04T10:42:03.183Z,19.60
2023-05-04T10:43:02.859Z,19.60
2023-05-04T10:44:03.357Z,19.60
2023-05-04T10:45:03.100Z,19.70
2023-05-04T10:46:03.034Z,19.70
2023-05-04T10:47:03.679Z,19.70
2023-05-04T10:48:02.835Z,19.80
2023-05-04T10:49:02.758Z,19.80
2023-05-04T10:50:02.871Z,19.80
2023-05-04T10:51:03.475Z,19.90
2023-05-04T10:52:03.272Z,19.90
2023-05-04T10:53:02.912Z,19.90
2023-05-04T10:54:03.469Z,20.00
2023-05-04T10:55:03.211Z,20.00
2023-05-04T10:56:03.090Z,20.00
2023-05-04T10:57:03.279Z,20.00
2023-05-04T10:58:03.127Z,20.10
2023-05-04T10:59:02.974Z,20.10
2023-05-04T11:00:02.832Z,20.10
2023-05-04T11:01:03.459Z,20.10
2023-05-04T11:02:03.704Z,20.10
2023-05-04T11:03:02.924Z,20.10
2023-05-04T11:04:03.100Z,20.10
2023-05-04T11:05:03.325Z,20.10
2023-05-04T11:06:02.822Z,20.00
2023-05-04T11:07:03.207Z,20.10
2023-05-04T11:08:03.591Z,20.10
2023-05-04T11:09:03.167Z,20.00
2023-05-04T11:10:02.737Z,20.00
2023-05-04T11:11:02.900Z,20.00
2023-05-04T11:12:03.474Z,20.00
2023-05-04T11:13:05.500Z,20.00
2023-05-04T11:14:02.894Z,20.00
2023-05-04T11:15:03.752Z,19.90
2023-05-04T11:16:02.899Z,19.90
2023-05-04T11:17:03.959Z,19.90
2023-05-04T11:18:02.774Z,19.90
2023-05-04T11:19:03.580Z,19.90
2023-05-04T11:20:03.222Z,19.90
2023-05-04T11:21:02.903Z,19.90
2023-05-04T11:22:02.857Z,19.90
2023-05-04T11:23:02.694Z,19.90
2023-05-04T11:24:02.746Z,19.90
2023-05-04T11:25:03.190Z,19.80
2023-05-04T11:26:02.831Z,19.80
2023-05-04T11:27:03.010Z,19.80
2023-05-04T11:28:03.459Z,19.80
2023-05-04T11:29:03.338Z,19.80
2023-05-04T11:30:03.373Z,19.80
2023-05-04T11:31:02.941Z,19.80
2023-05-04T11:32:02.931Z,19.90
2023-05-04T11:33:02.982Z,19.90
2023-05-04T11:34:02.737Z,19.90
2023-05-04T11:35:03.529Z,19.90
2023-05-04T11:36:03.583Z,19.90
2023-05-04T11:37:03.489Z,19.90
2023-05-04T11:38:02.994Z,19.90
2023-05-04T11:39:03.423Z,19.90
2023-05-04T11:40:03.072Z,19.90
2023-05-04T11:41:03.658Z,19.90
2023-05-04T11:42:03.255Z,19.90
2023-05-04T11:43:03.294Z,19.90
2023-05-04T11:44:02.966Z,19.90
2023-05-04T11:45:03.794Z,19.90
2023-05-04T11:46:02.864Z,19.90
2023-05-04T11:47:03.352Z,19.90
2023-05-04T11:48:03.777Z,19.90
2023-05-04T11:49:02.809Z,20.00
2023-05-04T11:50:02.745Z,20.00
2023-05-04T11:51:03.373Z,20.00
2023-05-04T11:52:03.055Z,20.00
2023-05-04T11:53:03.145Z,20.00
2023-05-04T11:54:02.835Z,20.00
2023-05-04T11:55:03.560Z,20.00
2023-05-04T11:56:03.431Z,20.00
2023-05-04T11:57:02.915Z,20.00
2023-05-04T11:58:03.635Z,20.00
2023-05-04T11:59:03.372Z,20.10
2023-05-04T12:00:02.903Z,20.10
2023-05-04T12:01:03.544Z,20.10
2023-05-04T12:02:03.611Z,20.20
2023-05-04T12:03:03.299Z,20.20
2023-05-04T12:04:02.898Z,20.20
2023-05-04T12:05:03.582Z,20.30
2023-05-04T12:06:03.542Z,20.30
2023-05-04T12:07:02.928Z,20.30
2023-05-04T12:08:03.521Z,20.30
2023-05-04T12:09:03.385Z,20.30
2023-05-04T12:10:02.876Z,20.30
2023-05-04T12:11:03.041Z,20.30
2023-05-04T12:12:03.252Z,20.30
2023-05-04T12:13:03.411Z,20.30
2023-05-04T12:14:03.425Z,20.30
2023-05-04T12:15:03.692Z,20.30
2023-05-04T12:16:03.129Z,20.30
2023-05-04T12:17:03.283Z,20.30
2023-05-04T12:18:03.478Z,20.30
2023-05-04T12:19:02.808Z,20.40
2023-05-04T12:20:02.998Z,20.40
2023-05-04T12:21:04.990Z,20.40
2023-05-04T12:22:03.296Z,20.40
2023-05-04T12:23:02.933Z,20.40
2023-05-04T12:24:03.619Z,20.40
2023-05-04T12:25:03.101Z,20.50
2023-05-04T12:26:03.048Z,20.50
2023-05-04T12:27:03.555Z,20.50
2023-05-04T12:28:03.547Z,20.50
2023-05-04T12:29:03.283Z,20.50
2023-05-04T12:30:02.885Z,20.50
2023-05-04T12:31:02.636Z,20.50
2023-05-04T12:32:03.497Z,20.50
2023-05-04T12:33:03.177Z,20.50
2023-05-04T12:34:03.290Z,20.50
2023-05-04T12:35:02.805Z,20.50
2023-05-04T12:36:03.478Z,20.50
2023-05-04T12:37:03.030Z,20.50
2023-05-04T12:38:02.696Z,20.50
2023-05-04T12:39:02.865Z,20.50
2023-05-04T12:40:02.882Z,20.50
2023-05-04T12:41:02.744Z,20.50
2023-05-04T12:42:03.294Z,20.50
2023-05-04T12:43:02.723Z,20.50
2023-05-04T12:44:03.259Z,20.50
2023-05-04T12:45:03.213Z,20.50
2023-05-04T12:46:02.853Z,20.50
2023-05-04T12:47:03.551Z,20.60
2023-05-04T12:48:03.328Z,20.60
2023-05-04T12:49:03.145Z,20.60
2023-05-04T12:50:03.264Z,20.60
2023-05-04T12:51:02.829Z,20.60
2023-05-04T12:52:02.783Z,20.60
2023-05-04T12:53:02.705Z,20.70
2023-05-04T12:54:03.384Z,20.70
2023-05-04T12:55:03.176Z,20.70
2023-05-04T12:56:02.993Z,20.70
2023-05-04T12:57:02.889Z,20.70
2023-05-04T12:58:03.378Z,20.70
2023-05-04T12:59:03.191Z,20.60
2023-05-04T13:00:02.712Z,20.60
2023-05-04T13:01:02.682Z,20.60
2023-05-04T13:02:02.821Z,20.60